sensor_id;sensor_type;location;lat;lon;timestamp;P1;durP1;ratioP1;P2;durP2;ratioP2
53688;SDS011;39583;54.682;30.662;2023-11-21T00:00:08;6.22;;;2.78;;
53688;SDS011;39583;54.682;30.662;2023-11-21T00:02:40;11.05;;;3.25;;
53688;SDS011;39583;54.682;30.662;2023-11-21T00:05:08;6.05;;;3.00;;
53688;SDS011;39583;54.682;30.662;2023-11-21T00:07:37;6.97;;;3.22;;
53688;SDS011;39583;54.682;30.662;2023-11-21T00:10:05;5.00;;;2.90;;
53688;SDS011;39583;54.682;30.662;2023-11-21T00:12:35;8.65;;;3.60;;
53688;SDS011;39583;54.682;30.662;2023-11-21T00:15:03;6.30;;;2.97;;
53688;SDS011;39583;54.682;30.662;2023-11-21T00:17:41;7.40;;;3.40;;
53688;SDS011;39583;54.682;30.662;2023-11-21T00:20:10;9.68;;;4.03;;
53688;SDS011;39583;54.682;30.662;2023-11-21T00:22:40;7.15;;;3.03;;
53688;SDS011;39583;54.682;30.662;2023-11-21T00:25:08;5.68;;;3.00;;
53688;SDS011;39583;54.682;30.662;2023-11-21T00:27:38;9.38;;;3.40;;
53688;SDS011;39583;54.682;30.662;2023-11-21T00:30:05;4.70;;;2.33;;
53688;SDS011;39583;54.682;30.662;2023-11-21T00:32:37;7.72;;;3.83;;
53688;SDS011;39583;54.682;30.662;2023-11-21T00:35:05;6.32;;;2.67;;
53688;SDS011;39583;54.682;30.662;2023-11-21T00:37:33;7.18;;;3.22;;
53688;SDS011;39583;54.682;30.662;2023-11-21T00:40:01;8.15;;;3.25;;
53688;SDS011;39583;54.682;30.662;2023-11-21T00:42:33;7.05;;;3.22;;
53688;SDS011;39583;54.682;30.662;2023-11-21T00:45:01;5.43;;;2.70;;
53688;SDS011;39583;54.682;30.662;2023-11-21T00:47:31;6.78;;;3.20;;
53688;SDS011;39583;54.682;30.662;2023-11-21T00:49:58;8.35;;;3.38;;
53688;SDS011;39583;54.682;30.662;2023-11-21T00:52:26;8.52;;;3.20;;
53688;SDS011;39583;54.682;30.662;2023-11-21T00:54:54;6.60;;;3.17;;
53688;SDS011;39583;54.682;30.662;2023-11-21T00:57:22;7.80;;;3.35;;
53688;SDS011;39583;54.682;30.662;2023-11-21T00:59:49;7.88;;;3.80;;
53688;SDS011;39583;54.682;30.662;2023-11-21T01:02:17;7.70;;;3.67;;
53688;SDS011;39583;54.682;30.662;2023-11-21T01:04:44;9.63;;;3.67;;
53688;SDS011;39583;54.682;30.662;2023-11-21T01:07:12;8.10;;;3.30;;
53688;SDS011;39583;54.682;30.662;2023-11-21T01:09:40;6.35;;;3.30;;
53688;SDS011;39583;54.682;30.662;2023-11-21T01:12:08;8.10;;;3.05;;
53688;SDS011;39583;54.682;30.662;2023-11-21T01:14:35;7.72;;;3.25;;
53688;SDS011;39583;54.682;30.662;2023-11-21T01:17:03;6.63;;;2.97;;
53688;SDS011;39583;54.682;30.662;2023-11-21T01:19:32;5.38;;;2.97;;
53688;SDS011;39583;54.682;30.662;2023-11-21T01:22:00;6.97;;;2.90;;
53688;SDS011;39583;54.682;30.662;2023-11-21T01:24:28;6.55;;;3.42;;
53688;SDS011;39583;54.682;30.662;2023-11-21T01:26:55;7.38;;;3.30;;
53688;SDS011;39583;54.682;30.662;2023-11-21T01:29:23;6.03;;;3.20;;
53688;SDS011;39583;54.682;30.662;2023-11-21T01:31:51;4.53;;;2.63;;
53688;SDS011;39583;54.682;30.662;2023-11-21T01:34:19;7.28;;;3.33;;
53688;SDS011;39583;54.682;30.662;2023-11-21T01:36:46;5.05;;;3.00;;
53688;SDS011;39583;54.682;30.662;2023-11-21T01:39:14;8.55;;;3.65;;
53688;SDS011;39583;54.682;30.662;2023-11-21T01:41:43;6.35;;;3.03;;
53688;SDS011;39583;54.682;30.662;2023-11-21T01:44:13;6.50;;;3.53;;
53688;SDS011;39583;54.682;30.662;2023-11-21T01:46:41;5.47;;;3.08;;
53688;SDS011;39583;54.682;30.662;2023-11-21T01:49:09;5.30;;;3.05;;
53688;SDS011;39583;54.682;30.662;2023-11-21T01:54:10;5.65;;;2.95;;
53688;SDS011;39583;54.682;30.662;2023-11-21T01:56:47;6.22;;;2.63;;
53688;SDS011;39583;54.682;30.662;2023-11-21T01:59:17;6.68;;;3.50;;
53688;SDS011;39583;54.682;30.662;2023-11-21T02:01:48;10.45;;;2.90;;
53688;SDS011;39583;54.682;30.662;2023-11-21T02:04:18;7.13;;;3.15;;
53688;SDS011;39583;54.682;30.662;2023-11-21T02:06:47;5.03;;;2.67;;
53688;SDS011;39583;54.682;30.662;2023-11-21T02:09:14;6.30;;;2.50;;
53688;SDS011;39583;54.682;30.662;2023-11-21T02:11:42;8.55;;;3.83;;
53688;SDS011;39583;54.682;30.662;2023-11-21T02:14:11;4.43;;;2.22;;
53688;SDS011;39583;54.682;30.662;2023-11-21T02:16:41;6.57;;;3.25;;
53688;SDS011;39583;54.682;30.662;2023-11-21T02:21:46;3.90;;;2.33;;
53688;SDS011;39583;54.682;30.662;2023-11-21T02:24:15;5.45;;;2.83;;
53688;SDS011;39583;54.682;30.662;2023-11-21T02:26:44;5.70;;;2.58;;
53688;SDS011;39583;54.682;30.662;2023-11-21T02:29:13;3.92;;;2.50;;
53688;SDS011;39583;54.682;30.662;2023-11-21T02:31:40;6.38;;;3.13;;
53688;SDS011;39583;54.682;30.662;2023-11-21T02:34:15;5.60;;;2.78;;
53688;SDS011;39583;54.682;30.662;2023-11-21T02:36:44;4.28;;;2.33;;
53688;SDS011;39583;54.682;30.662;2023-11-21T02:39:12;4.95;;;2.15;;
53688;SDS011;39583;54.682;30.662;2023-11-21T02:41:40;6.90;;;2.55;;
53688;SDS011;39583;54.682;30.662;2023-11-21T02:44:08;6.50;;;2.78;;
53688;SDS011;39583;54.682;30.662;2023-11-21T02:46:37;5.25;;;2.95;;
53688;SDS011;39583;54.682;30.662;2023-11-21T02:49:05;6.60;;;3.42;;
53688;SDS011;39583;54.682;30.662;2023-11-21T02:51:33;3.53;;;2.05;;
53688;SDS011;39583;54.682;30.662;2023-11-21T02:54:01;4.35;;;2.55;;
53688;SDS011;39583;54.682;30.662;2023-11-21T02:56:34;7.38;;;2.88;;
53688;SDS011;39583;54.682;30.662;2023-11-21T02:59:02;5.25;;;2.50;;
53688;SDS011;39583;54.682;30.662;2023-11-21T03:01:30;5.35;;;2.40;;
53688;SDS011;39583;54.682;30.662;2023-11-21T03:03:58;4.45;;;2.67;;
53688;SDS011;39583;54.682;30.662;2023-11-21T03:06:26;5.03;;;2.55;;
53688;SDS011;39583;54.682;30.662;2023-11-21T03:08:53;6.40;;;3.50;;
53688;SDS011;39583;54.682;30.662;2023-11-21T03:11:21;9.98;;;3.28;;
53688;SDS011;39583;54.682;30.662;2023-11-21T03:13:48;7.85;;;2.17;;
53688;SDS011;39583;54.682;30.662;2023-11-21T03:16:18;5.03;;;2.38;;
53688;SDS011;39583;54.682;30.662;2023-11-21T03:18:46;5.30;;;2.40;;
53688;SDS011;39583;54.682;30.662;2023-11-21T03:21:14;5.72;;;2.53;;
53688;SDS011;39583;54.682;30.662;2023-11-21T03:23:41;5.45;;;2.67;;
53688;SDS011;39583;54.682;30.662;2023-11-21T03:26:11;4.63;;;2.33;;
53688;SDS011;39583;54.682;30.662;2023-11-21T03:28:40;4.80;;;2.58;;
53688;SDS011;39583;54.682;30.662;2023-11-21T03:31:07;4.95;;;2.30;;
53688;SDS011;39583;54.682;30.662;2023-11-21T03:33:36;5.53;;;2.55;;
53688;SDS011;39583;54.682;30.662;2023-11-21T03:36:03;4.20;;;2.53;;
53688;SDS011;39583;54.682;30.662;2023-11-21T03:38:31;5.05;;;2.67;;
53688;SDS011;39583;54.682;30.662;2023-11-21T03:40:59;6.55;;;2.28;;
53688;SDS011;39583;54.682;30.662;2023-11-21T03:43:28;4.15;;;2.30;;
53688;SDS011;39583;54.682;30.662;2023-11-21T03:45:56;4.28;;;2.42;;
53688;SDS011;39583;54.682;30.662;2023-11-21T03:48:23;9.18;;;3.10;;
53688;SDS011;39583;54.682;30.662;2023-11-21T03:50:51;4.85;;;2.38;;
53688;SDS011;39583;54.682;30.662;2023-11-21T03:53:19;5.13;;;2.50;;
53688;SDS011;39583;54.682;30.662;2023-11-21T03:55:46;5.70;;;2.88;;
53688;SDS011;39583;54.682;30.662;2023-11-21T03:58:14;3.90;;;2.15;;
53688;SDS011;39583;54.682;30.662;2023-11-21T04:00:41;4.97;;;2.50;;
53688;SDS011;39583;54.682;30.662;2023-11-21T04:03:09;5.75;;;1.90;;
53688;SDS011;39583;54.682;30.662;2023-11-21T04:05:37;6.88;;;2.80;;
53688;SDS011;39583;54.682;30.662;2023-11-21T04:08:04;6.25;;;2.05;;
53688;SDS011;39583;54.682;30.662;2023-11-21T04:10:32;5.85;;;2.08;;
53688;SDS011;39583;54.682;30.662;2023-11-21T04:13:00;3.63;;;2.03;;
53688;SDS011;39583;54.682;30.662;2023-11-21T04:15:28;5.07;;;2.20;;
53688;SDS011;39583;54.682;30.662;2023-11-21T04:17:55;5.40;;;2.67;;
53688;SDS011;39583;54.682;30.662;2023-11-21T04:20:23;6.00;;;1.98;;
53688;SDS011;39583;54.682;30.662;2023-11-21T04:22:51;4.05;;;1.77;;
53688;SDS011;39583;54.682;30.662;2023-11-21T04:25:19;4.95;;;2.60;;
53688;SDS011;39583;54.682;30.662;2023-11-21T04:27:47;5.55;;;2.33;;
53688;SDS011;39583;54.682;30.662;2023-11-21T04:30:15;4.70;;;2.38;;
53688;SDS011;39583;54.682;30.662;2023-11-21T04:32:43;6.50;;;2.70;;
53688;SDS011;39583;54.682;30.662;2023-11-21T04:35:10;5.38;;;2.35;;
53688;SDS011;39583;54.682;30.662;2023-11-21T04:37:38;4.45;;;2.08;;
53688;SDS011;39583;54.682;30.662;2023-11-21T04:40:07;4.05;;;2.05;;
53688;SDS011;39583;54.682;30.662;2023-11-21T04:42:35;6.00;;;2.03;;
53688;SDS011;39583;54.682;30.662;2023-11-21T04:45:04;5.10;;;1.88;;
53688;SDS011;39583;54.682;30.662;2023-11-21T04:47:37;5.95;;;2.00;;
53688;SDS011;39583;54.682;30.662;2023-11-21T04:50:05;4.13;;;2.25;;
53688;SDS011;39583;54.682;30.662;2023-11-21T04:52:33;7.72;;;2.42;;
53688;SDS011;39583;54.682;30.662;2023-11-21T04:55:00;7.80;;;2.58;;
53688;SDS011;39583;54.682;30.662;2023-11-21T04:57:30;5.72;;;2.10;;
53688;SDS011;39583;54.682;30.662;2023-11-21T04:59:57;3.53;;;1.88;;
53688;SDS011;39583;54.682;30.662;2023-11-21T05:02:25;6.38;;;2.60;;
53688;SDS011;39583;54.682;30.662;2023-11-21T05:05:01;3.88;;;1.98;;
53688;SDS011;39583;54.682;30.662;2023-11-21T05:07:30;5.45;;;2.42;;
53688;SDS011;39583;54.682;30.662;2023-11-21T05:09:58;4.45;;;2.15;;
53688;SDS011;39583;54.682;30.662;2023-11-21T05:12:26;4.22;;;1.77;;
53688;SDS011;39583;54.682;30.662;2023-11-21T05:14:54;5.43;;;2.25;;
53688;SDS011;39583;54.682;30.662;2023-11-21T05:17:22;4.07;;;2.20;;
53688;SDS011;39583;54.682;30.662;2023-11-21T05:19:50;5.78;;;2.10;;
53688;SDS011;39583;54.682;30.662;2023-11-21T05:22:17;5.75;;;2.08;;
53688;SDS011;39583;54.682;30.662;2023-11-21T05:24:47;3.97;;;1.85;;
53688;SDS011;39583;54.682;30.662;2023-11-21T05:27:14;8.98;;;2.38;;
53688;SDS011;39583;54.682;30.662;2023-11-21T05:29:43;4.65;;;2.20;;
53688;SDS011;39583;54.682;30.662;2023-11-21T05:32:10;4.93;;;2.38;;
53688;SDS011;39583;54.682;30.662;2023-11-21T05:34:38;4.28;;;1.67;;
53688;SDS011;39583;54.682;30.662;2023-11-21T05:37:06;4.65;;;2.50;;
53688;SDS011;39583;54.682;30.662;2023-11-21T05:39:33;4.13;;;2.00;;
53688;SDS011;39583;54.682;30.662;2023-11-21T05:42:02;7.90;;;1.90;;
53688;SDS011;39583;54.682;30.662;2023-11-21T05:44:31;5.90;;;1.75;;
53688;SDS011;39583;54.682;30.662;2023-11-21T05:46:58;4.07;;;2.00;;
53688;SDS011;39583;54.682;30.662;2023-11-21T05:49:26;4.63;;;1.67;;
53688;SDS011;39583;54.682;30.662;2023-11-21T05:51:54;3.90;;;2.08;;
53688;SDS011;39583;54.682;30.662;2023-11-21T05:54:22;5.18;;;1.98;;
53688;SDS011;39583;54.682;30.662;2023-11-21T05:56:50;4.80;;;2.33;;
53688;SDS011;39583;54.682;30.662;2023-11-21T05:59:18;2.75;;;1.42;;
53688;SDS011;39583;54.682;30.662;2023-11-21T06:01:49;3.58;;;2.10;;
53688;SDS011;39583;54.682;30.662;2023-11-21T06:04:17;4.10;;;1.80;;
53688;SDS011;39583;54.682;30.662;2023-11-21T06:06:45;5.65;;;1.80;;
53688;SDS011;39583;54.682;30.662;2023-11-21T06:09:13;5.78;;;1.75;;
53688;SDS011;39583;54.682;30.662;2023-11-21T06:11:41;3.58;;;1.90;;
53688;SDS011;39583;54.682;30.662;2023-11-21T06:14:08;4.45;;;2.10;;
53688;SDS011;39583;54.682;30.662;2023-11-21T06:16:36;3.75;;;2.00;;
53688;SDS011;39583;54.682;30.662;2023-11-21T06:19:04;3.05;;;1.60;;
53688;SDS011;39583;54.682;30.662;2023-11-21T06:21:32;3.92;;;2.15;;
53688;SDS011;39583;54.682;30.662;2023-11-21T06:24:00;4.28;;;2.55;;
53688;SDS011;39583;54.682;30.662;2023-11-21T06:26:28;4.00;;;2.28;;
53688;SDS011;39583;54.682;30.662;2023-11-21T06:28:56;6.15;;;2.10;;
53688;SDS011;39583;54.682;30.662;2023-11-21T06:31:26;5.20;;;2.00;;
53688;SDS011;39583;54.682;30.662;2023-11-21T06:33:53;5.03;;;1.83;;
53688;SDS011;39583;54.682;30.662;2023-11-21T06:36:21;4.45;;;2.30;;
53688;SDS011;39583;54.682;30.662;2023-11-21T06:38:51;4.18;;;2.08;;
53688;SDS011;39583;54.682;30.662;2023-11-21T06:41:18;4.38;;;1.67;;
53688;SDS011;39583;54.682;30.662;2023-11-21T06:43:46;4.95;;;1.98;;
53688;SDS011;39583;54.682;30.662;2023-11-21T06:46:13;3.70;;;1.80;;
53688;SDS011;39583;54.682;30.662;2023-11-21T06:48:42;2.85;;;1.73;;
53688;SDS011;39583;54.682;30.662;2023-11-21T06:51:10;4.22;;;2.10;;
53688;SDS011;39583;54.682;30.662;2023-11-21T06:53:38;5.13;;;2.10;;
53688;SDS011;39583;54.682;30.662;2023-11-21T06:56:14;4.75;;;2.20;;
53688;SDS011;39583;54.682;30.662;2023-11-21T06:58:44;2.75;;;1.70;;
53688;SDS011;39583;54.682;30.662;2023-11-21T07:01:13;3.42;;;2.05;;
53688;SDS011;39583;54.682;30.662;2023-11-21T07:03:41;3.85;;;2.00;;
53688;SDS011;39583;54.682;30.662;2023-11-21T07:06:10;4.55;;;1.80;;
53688;SDS011;39583;54.682;30.662;2023-11-21T07:08:38;5.10;;;2.28;;
53688;SDS011;39583;54.682;30.662;2023-11-21T07:11:05;5.53;;;2.35;;
53688;SDS011;39583;54.682;30.662;2023-11-21T07:13:34;2.85;;;1.73;;
53688;SDS011;39583;54.682;30.662;2023-11-21T07:16:01;5.57;;;2.47;;
53688;SDS011;39583;54.682;30.662;2023-11-21T07:18:30;3.30;;;1.73;;
53688;SDS011;39583;54.682;30.662;2023-11-21T07:20:58;5.07;;;2.33;;
53688;SDS011;39583;54.682;30.662;2023-11-21T07:23:26;3.70;;;2.00;;
53688;SDS011;39583;54.682;30.662;2023-11-21T07:25:53;6.35;;;2.38;;
53688;SDS011;39583;54.682;30.662;2023-11-21T07:28:21;3.58;;;1.92;;
53688;SDS011;39583;54.682;30.662;2023-11-21T07:30:48;8.40;;;3.25;;
53688;SDS011;39583;54.682;30.662;2023-11-21T07:33:16;6.72;;;3.47;;
53688;SDS011;39583;54.682;30.662;2023-11-21T07:35:44;2.78;;;1.60;;
53688;SDS011;39583;54.682;30.662;2023-11-21T07:38:12;6.25;;;2.50;;
53688;SDS011;39583;54.682;30.662;2023-11-21T07:40:40;7.18;;;1.95;;
53688;SDS011;39583;54.682;30.662;2023-11-21T07:43:07;5.28;;;2.03;;
53688;SDS011;39583;54.682;30.662;2023-11-21T07:45:36;4.70;;;2.10;;
53688;SDS011;39583;54.682;30.662;2023-11-21T07:48:04;9.77;;;2.33;;
53688;SDS011;39583;54.682;30.662;2023-11-21T07:50:32;5.35;;;2.10;;
53688;SDS011;39583;54.682;30.662;2023-11-21T07:53:00;4.55;;;1.27;;
53688;SDS011;39583;54.682;30.662;2023-11-21T07:55:37;5.07;;;1.90;;
53688;SDS011;39583;54.682;30.662;2023-11-21T07:58:12;6.22;;;2.30;;
53688;SDS011;39583;54.682;30.662;2023-11-21T08:00:40;7.57;;;2.60;;
53688;SDS011;39583;54.682;30.662;2023-11-21T08:03:08;7.90;;;3.22;;
53688;SDS011;39583;54.682;30.662;2023-11-21T08:05:36;10.55;;;2.33;;
53688;SDS011;39583;54.682;30.662;2023-11-21T08:08:04;3.90;;;1.95;;
53688;SDS011;39583;54.682;30.662;2023-11-21T08:10:33;3.10;;;1.60;;
53688;SDS011;39583;54.682;30.662;2023-11-21T08:13:01;3.90;;;2.00;;
53688;SDS011;39583;54.682;30.662;2023-11-21T08:15:29;4.32;;;2.05;;
53688;SDS011;39583;54.682;30.662;2023-11-21T08:17:59;3.38;;;1.80;;
53688;SDS011;39583;54.682;30.662;2023-11-21T08:20:26;3.70;;;1.60;;
53688;SDS011;39583;54.682;30.662;2023-11-21T08:22:55;3.20;;;1.65;;
53688;SDS011;39583;54.682;30.662;2023-11-21T08:25:24;3.10;;;1.50;;
53688;SDS011;39583;54.682;30.662;2023-11-21T08:27:53;5.13;;;2.10;;
53688;SDS011;39583;54.682;30.662;2023-11-21T08:30:21;3.22;;;1.73;;
53688;SDS011;39583;54.682;30.662;2023-11-21T08:32:51;5.55;;;2.20;;
53688;SDS011;39583;54.682;30.662;2023-11-21T08:35:21;3.83;;;1.38;;
53688;SDS011;39583;54.682;30.662;2023-11-21T08:37:50;5.55;;;2.05;;
53688;SDS011;39583;54.682;30.662;2023-11-21T08:40:20;3.70;;;2.15;;
53688;SDS011;39583;54.682;30.662;2023-11-21T08:42:48;4.53;;;1.77;;
53688;SDS011;39583;54.682;30.662;2023-11-21T08:45:15;4.93;;;2.38;;
53688;SDS011;39583;54.682;30.662;2023-11-21T08:47:44;3.95;;;1.60;;
53688;SDS011;39583;54.682;30.662;2023-11-21T08:50:13;3.88;;;1.42;;
53688;SDS011;39583;54.682;30.662;2023-11-21T08:52:42;3.47;;;2.05;;
53688;SDS011;39583;54.682;30.662;2023-11-21T08:55:11;2.33;;;1.33;;
53688;SDS011;39583;54.682;30.662;2023-11-21T08:57:45;2.63;;;1.52;;
53688;SDS011;39583;54.682;30.662;2023-11-21T09:00:18;1.83;;;1.33;;
53688;SDS011;39583;54.682;30.662;2023-11-21T09:02:53;5.93;;;2.15;;
53688;SDS011;39583;54.682;30.662;2023-11-21T09:05:21;1.70;;;0.93;;
53688;SDS011;39583;54.682;30.662;2023-11-21T09:07:49;4.22;;;1.77;;
53688;SDS011;39583;54.682;30.662;2023-11-21T09:10:19;2.47;;;1.25;;
53688;SDS011;39583;54.682;30.662;2023-11-21T09:12:48;3.08;;;1.55;;
53688;SDS011;39583;54.682;30.662;2023-11-21T09:15:17;2.33;;;1.23;;
53688;SDS011;39583;54.682;30.662;2023-11-21T09:17:45;2.30;;;0.80;;
53688;SDS011;39583;54.682;30.662;2023-11-21T09:20:16;2.20;;;1.05;;
53688;SDS011;39583;54.682;30.662;2023-11-21T09:22:44;2.92;;;1.27;;
53688;SDS011;39583;54.682;30.662;2023-11-21T09:25:13;1.90;;;0.70;;
53688;SDS011;39583;54.682;30.662;2023-11-21T09:27:42;2.90;;;1.05;;
53688;SDS011;39583;54.682;30.662;2023-11-21T09:30:11;2.40;;;1.00;;
53688;SDS011;39583;54.682;30.662;2023-11-21T09:32:41;1.85;;;1.08;;
53688;SDS011;39583;54.682;30.662;2023-11-21T09:35:12;2.40;;;1.27;;
53688;SDS011;39583;54.682;30.662;2023-11-21T09:37:42;1.67;;;0.82;;
53688;SDS011;39583;54.682;30.662;2023-11-21T09:40:12;1.42;;;0.70;;
53688;SDS011;39583;54.682;30.662;2023-11-21T09:42:49;1.25;;;0.85;;
53688;SDS011;39583;54.682;30.662;2023-11-21T09:45:20;8.18;;;1.35;;
53688;SDS011;39583;54.682;30.662;2023-11-21T09:47:53;1.65;;;0.60;;
53688;SDS011;39583;54.682;30.662;2023-11-21T09:50:24;1.25;;;0.70;;
53688;SDS011;39583;54.682;30.662;2023-11-21T09:55:46;2.10;;;0.82;;
53688;SDS011;39583;54.682;30.662;2023-11-21T09:58:15;3.00;;;1.00;;
53688;SDS011;39583;54.682;30.662;2023-11-21T10:00:44;0.93;;;0.55;;
53688;SDS011;39583;54.682;30.662;2023-11-21T10:03:15;1.13;;;0.70;;
53688;SDS011;39583;54.682;30.662;2023-11-21T10:05:44;1.30;;;0.65;;
53688;SDS011;39583;54.682;30.662;2023-11-21T10:08:17;1.15;;;0.60;;
53688;SDS011;39583;54.682;30.662;2023-11-21T10:10:47;2.15;;;0.90;;
53688;SDS011;39583;54.682;30.662;2023-11-21T10:13:18;1.20;;;0.55;;
53688;SDS011;39583;54.682;30.662;2023-11-21T10:15:50;1.38;;;0.80;;
53688;SDS011;39583;54.682;30.662;2023-11-21T10:18:20;1.40;;;0.75;;
53688;SDS011;39583;54.682;30.662;2023-11-21T10:20:50;4.43;;;0.70;;
53688;SDS011;39583;54.682;30.662;2023-11-21T10:23:21;1.25;;;0.80;;
53688;SDS011;39583;54.682;30.662;2023-11-21T10:25:50;3.72;;;0.60;;
53688;SDS011;39583;54.682;30.662;2023-11-21T10:28:20;1.30;;;0.60;;
53688;SDS011;39583;54.682;30.662;2023-11-21T10:30:51;1.23;;;0.73;;
53688;SDS011;39583;54.682;30.662;2023-11-21T10:33:27;0.85;;;0.50;;
53688;SDS011;39583;54.682;30.662;2023-11-21T10:35:58;2.33;;;0.98;;
53688;SDS011;39583;54.682;30.662;2023-11-21T10:38:28;0.50;;;0.43;;
53688;SDS011;39583;54.682;30.662;2023-11-21T10:41:02;1.85;;;0.73;;
53688;SDS011;39583;54.682;30.662;2023-11-21T10:43:32;1.33;;;0.60;;
53688;SDS011;39583;54.682;30.662;2023-11-21T10:46:01;1.45;;;0.70;;
53688;SDS011;39583;54.682;30.662;2023-11-21T10:48:30;1.23;;;0.60;;
53688;SDS011;39583;54.682;30.662;2023-11-21T10:51:01;1.58;;;1.00;;
53688;SDS011;39583;54.682;30.662;2023-11-21T10:53:38;1.73;;;0.50;;
53688;SDS011;39583;54.682;30.662;2023-11-21T10:58:43;0.98;;;0.60;;
53688;SDS011;39583;54.682;30.662;2023-11-21T11:01:12;2.78;;;0.95;;
53688;SDS011;39583;54.682;30.662;2023-11-21T11:03:41;1.40;;;0.80;;
53688;SDS011;39583;54.682;30.662;2023-11-21T11:06:15;1.45;;;0.85;;
53688;SDS011;39583;54.682;30.662;2023-11-21T11:08:43;1.67;;;0.80;;
53688;SDS011;39583;54.682;30.662;2023-11-21T11:11:12;2.85;;;0.73;;
53688;SDS011;39583;54.682;30.662;2023-11-21T11:13:43;3.50;;;1.02;;
53688;SDS011;39583;54.682;30.662;2023-11-21T11:16:12;1.15;;;0.80;;
53688;SDS011;39583;54.682;30.662;2023-11-21T11:18:44;2.63;;;1.00;;
53688;SDS011;39583;54.682;30.662;2023-11-21T11:21:26;1.98;;;1.05;;
53688;SDS011;39583;54.682;30.662;2023-11-21T11:29:41;1.55;;;0.88;;
53688;SDS011;39583;54.682;30.662;2023-11-21T11:35:26;2.00;;;0.85;;
53688;SDS011;39583;54.682;30.662;2023-11-21T11:38:09;3.10;;;1.02;;
53688;SDS011;39583;54.682;30.662;2023-11-21T11:40:47;1.67;;;0.70;;
53688;SDS011;39583;54.682;30.662;2023-11-21T11:43:25;1.75;;;0.70;;
53688;SDS011;39583;54.682;30.662;2023-11-21T11:45:57;1.38;;;0.80;;
53688;SDS011;39583;54.682;30.662;2023-11-21T11:48:34;3.22;;;0.93;;
53688;SDS011;39583;54.682;30.662;2023-11-21T11:51:09;1.30;;;0.68;;
53688;SDS011;39583;54.682;30.662;2023-11-21T11:53:41;1.23;;;0.57;;
53688;SDS011;39583;54.682;30.662;2023-11-21T11:58:56;1.52;;;0.60;;
53688;SDS011;39583;54.682;30.662;2023-11-21T12:01:26;2.08;;;0.98;;
53688;SDS011;39583;54.682;30.662;2023-11-21T12:04:36;3.55;;;0.77;;
53688;SDS011;39583;54.682;30.662;2023-11-21T12:06:47;1.42;;;0.77;;
53688;SDS011;39583;54.682;30.662;2023-11-21T12:09:21;2.90;;;1.15;;
53688;SDS011;39583;54.682;30.662;2023-11-21T12:11:51;2.25;;;0.70;;
53688;SDS011;39583;54.682;30.662;2023-11-21T12:14:19;1.52;;;0.90;;
53688;SDS011;39583;54.682;30.662;2023-11-21T12:16:47;0.85;;;0.47;;
53688;SDS011;39583;54.682;30.662;2023-11-21T12:19:15;1.15;;;0.63;;
53688;SDS011;39583;54.682;30.662;2023-11-21T12:21:43;1.27;;;0.70;;
53688;SDS011;39583;54.682;30.662;2023-11-21T12:24:14;2.00;;;1.00;;
53688;SDS011;39583;54.682;30.662;2023-11-21T12:26:43;1.60;;;0.60;;
53688;SDS011;39583;54.682;30.662;2023-11-21T12:29:11;8.18;;;0.63;;
53688;SDS011;39583;54.682;30.662;2023-11-21T12:31:39;1.02;;;0.47;;
53688;SDS011;39583;54.682;30.662;2023-11-21T12:34:08;2.22;;;0.70;;
53688;SDS011;39583;54.682;30.662;2023-11-21T12:36:41;3.70;;;0.95;;
53688;SDS011;39583;54.682;30.662;2023-11-21T12:39:14;1.80;;;0.85;;
53688;SDS011;39583;54.682;30.662;2023-11-21T12:41:47;0.68;;;0.50;;
53688;SDS011;39583;54.682;30.662;2023-11-21T12:44:15;1.20;;;0.55;;
53688;SDS011;39583;54.682;30.662;2023-11-21T12:46:43;1.27;;;0.63;;
53688;SDS011;39583;54.682;30.662;2023-11-21T12:49:12;3.47;;;0.68;;
53688;SDS011;39583;54.682;30.662;2023-11-21T12:51:47;1.63;;;0.60;;
53688;SDS011;39583;54.682;30.662;2023-11-21T12:54:15;1.13;;;0.60;;
53688;SDS011;39583;54.682;30.662;2023-11-21T12:56:45;2.35;;;0.63;;
53688;SDS011;39583;54.682;30.662;2023-11-21T12:59:14;0.80;;;0.40;;
53688;SDS011;39583;54.682;30.662;2023-11-21T13:01:43;2.45;;;0.60;;
53688;SDS011;39583;54.682;30.662;2023-11-21T13:04:11;1.60;;;0.80;;
53688;SDS011;39583;54.682;30.662;2023-11-21T13:06:39;1.42;;;0.55;;
53688;SDS011;39583;54.682;30.662;2023-11-21T13:09:08;1.20;;;0.68;;
53688;SDS011;39583;54.682;30.662;2023-11-21T13:11:43;1.92;;;0.47;;
53688;SDS011;39583;54.682;30.662;2023-11-21T13:14:12;1.90;;;0.57;;
53688;SDS011;39583;54.682;30.662;2023-11-21T13:16:41;1.17;;;0.68;;
53688;SDS011;39583;54.682;30.662;2023-11-21T13:19:14;1.67;;;0.70;;
53688;SDS011;39583;54.682;30.662;2023-11-21T13:21:41;1.05;;;0.52;;
53688;SDS011;39583;54.682;30.662;2023-11-21T13:24:09;3.25;;;0.80;;
53688;SDS011;39583;54.682;30.662;2023-11-21T13:26:37;1.65;;;0.80;;
53688;SDS011;39583;54.682;30.662;2023-11-21T13:29:05;2.22;;;0.88;;
53688;SDS011;39583;54.682;30.662;2023-11-21T13:31:33;1.45;;;0.73;;
53688;SDS011;39583;54.682;30.662;2023-11-21T13:34:04;1.52;;;0.90;;
53688;SDS011;39583;54.682;30.662;2023-11-21T13:36:32;1.17;;;0.77;;
53688;SDS011;39583;54.682;30.662;2023-11-21T13:39:03;1.30;;;0.70;;
53688;SDS011;39583;54.682;30.662;2023-11-21T13:41:43;2.80;;;0.85;;
53688;SDS011;39583;54.682;30.662;2023-11-21T13:44:10;1.77;;;0.90;;
53688;SDS011;39583;54.682;30.662;2023-11-21T13:47:04;2.67;;;0.68;;
53688;SDS011;39583;54.682;30.662;2023-11-21T13:49:33;2.72;;;0.80;;
53688;SDS011;39583;54.682;30.662;2023-11-21T13:52:08;1.08;;;0.60;;
53688;SDS011;39583;54.682;30.662;2023-11-21T13:54:38;1.02;;;0.60;;
53688;SDS011;39583;54.682;30.662;2023-11-21T13:57:05;2.00;;;1.15;;
53688;SDS011;39583;54.682;30.662;2023-11-21T13:59:33;1.08;;;0.85;;
53688;SDS011;39583;54.682;30.662;2023-11-21T14:02:01;0.90;;;0.45;;
53688;SDS011;39583;54.682;30.662;2023-11-21T14:07:17;1.42;;;0.77;;
53688;SDS011;39583;54.682;30.662;2023-11-21T14:09:53;1.90;;;0.60;;
53688;SDS011;39583;54.682;30.662;2023-11-21T14:12:20;1.48;;;0.60;;
53688;SDS011;39583;54.682;30.662;2023-11-21T14:14:48;1.42;;;0.80;;
53688;SDS011;39583;54.682;30.662;2023-11-21T14:17:16;1.98;;;1.10;;
53688;SDS011;39583;54.682;30.662;2023-11-21T14:19:43;2.38;;;0.90;;
53688;SDS011;39583;54.682;30.662;2023-11-21T14:22:11;1.45;;;0.80;;
53688;SDS011;39583;54.682;30.662;2023-11-21T14:24:39;2.15;;;1.13;;
53688;SDS011;39583;54.682;30.662;2023-11-21T14:27:14;2.22;;;0.93;;
53688;SDS011;39583;54.682;30.662;2023-11-21T14:29:44;6.78;;;1.00;;
53688;SDS011;39583;54.682;30.662;2023-11-21T14:32:12;2.97;;;1.23;;
53688;SDS011;39583;54.682;30.662;2023-11-21T14:34:41;3.30;;;1.10;;
53688;SDS011;39583;54.682;30.662;2023-11-21T14:37:13;1.90;;;1.10;;
53688;SDS011;39583;54.682;30.662;2023-11-21T14:39:41;1.15;;;0.57;;
53688;SDS011;39583;54.682;30.662;2023-11-21T14:42:12;2.72;;;1.10;;
53688;SDS011;39583;54.682;30.662;2023-11-21T14:44:44;2.17;;;1.20;;
53688;SDS011;39583;54.682;30.662;2023-11-21T14:47:12;1.17;;;0.68;;
53688;SDS011;39583;54.682;30.662;2023-11-21T14:49:42;1.63;;;0.90;;
53688;SDS011;39583;54.682;30.662;2023-11-21T14:52:21;1.90;;;1.13;;
53688;SDS011;39583;54.682;30.662;2023-11-21T14:55:05;1.20;;;0.63;;
53688;SDS011;39583;54.682;30.662;2023-11-21T14:58:08;3.72;;;0.60;;
53688;SDS011;39583;54.682;30.662;2023-11-21T15:00:40;1.23;;;0.75;;
53688;SDS011;39583;54.682;30.662;2023-11-21T15:03:12;2.40;;;0.80;;
53688;SDS011;39583;54.682;30.662;2023-11-21T15:05:49;1.63;;;0.90;;
53688;SDS011;39583;54.682;30.662;2023-11-21T15:08:17;3.00;;;0.80;;
53688;SDS011;39583;54.682;30.662;2023-11-21T15:10:53;1.25;;;0.73;;